RYR48TD EGNM-LEPA
Flight info
| Callsign | RYR48TD |
|---|---|
| Flight time | 2h 44m |
| Altitude | 23000 |
| Route | POL DCT MCT DCT LISTO P18 STAFA L8 HON/N0447F350 UN859 SITET/N0447F370 UN859 SOPIL DCT BALAN DCT EVPOK DCT NARAK DCT GAI DCT LOMRA DCT ROCAN DCT IBRAP DCT LUKEV N13 LORES |
| Aircraft | A320/M-SDE3FGHIRWY/LB1 |
Departure
| Time | 2026-04-30 18:36 |
|---|---|
| Airport | Leeds Bradford Airport (EGNM) |
Arrival
| Time | 2026-04-30 21:21 |
|---|---|
| Airport | Palma de Mallorca Airport (LEPA) |
| Time | Latitude | Longitude | Altitude | Speed | Heading |
|---|---|---|---|---|---|
| 2026-04-30 17:53 | 53.86882 | -1.65690 | 665 ft | 0 kts | 1° |
| 2026-04-30 18:27 | 53.86842 | -1.65691 | 665 ft | 4 kts | 359° |
| 2026-04-30 18:27 | 53.86820 | -1.65682 | 663 ft | 4 kts | 298° |
| 2026-04-30 18:28 | 53.86816 | -1.65635 | 663 ft | 0 kts | 271° |
| 2026-04-30 18:30 | 53.86817 | -1.65666 | 661 ft | 5 kts | 271° |
| 2026-04-30 18:31 | 53.86817 | -1.65752 | 665 ft | 10 kts | 269° |
| 2026-04-30 18:31 | 53.86818 | -1.66063 | 666 ft | 13 kts | 283° |
| 2026-04-30 18:32 | 53.86913 | -1.66248 | 666 ft | 9 kts | 317° |
| 2026-04-30 18:32 | 53.86959 | -1.66330 | 670 ft | 10 kts | 304° |
| 2026-04-30 18:32 | 53.86962 | -1.66609 | 672 ft | 17 kts | 279° |
| 2026-04-30 18:33 | 53.87046 | -1.66761 | 679 ft | 18 kts | 317° |
| 2026-04-30 18:33 | 53.87281 | -1.66996 | 689 ft | 21 kts | 0° |
| 2026-04-30 18:33 | 53.87400 | -1.67054 | 688 ft | 16 kts | 287° |
| 2026-04-30 18:34 | 53.87351 | -1.67190 | 686 ft | 13 kts | 205° |
| 2026-04-30 18:34 | 53.87285 | -1.67126 | 684 ft | 0 kts | 137° |
| 2026-04-30 18:35 | 53.87285 | -1.67125 | 684 ft | 0 kts | 137° |
| 2026-04-30 18:36 | 53.86778 | -1.66335 | 668 ft | 120 kts | 137° |
| 2026-04-30 18:36 | 53.86019 | -1.65220 | 782 ft | 162 kts | 159° |
| 2026-04-30 18:36 | 53.84177 | -1.66247 | 2410 ft | 131 kts | 213° |
| 2026-04-30 18:37 | 53.83504 | -1.67404 | 2548 ft | 149 kts | 215° |
| 2026-04-30 18:37 | 53.82587 | -1.68095 | 2658 ft | 150 kts | 166° |
| 2026-04-30 18:37 | 53.81722 | -1.67077 | 2759 ft | 171 kts | 125° |
| 2026-04-30 18:37 | 53.80939 | -1.65334 | 2683 ft | 200 kts | 148° |
| 2026-04-30 18:38 | 53.79534 | -1.64832 | 2836 ft | 225 kts | 187° |
| 2026-04-30 18:38 | 53.78116 | -1.66239 | 3233 ft | 255 kts | 228° |
| 2026-04-30 18:38 | 53.77443 | -1.69078 | 4040 ft | 273 kts | 262° |
| 2026-04-30 18:38 | 53.77668 | -1.72325 | 4915 ft | 282 kts | 278° |
| 2026-04-30 18:39 | 53.78009 | -1.75597 | 5766 ft | 282 kts | 269° |
| 2026-04-30 18:39 | 53.77947 | -1.78893 | 6617 ft | 279 kts | 258° |
| 2026-04-30 18:39 | 53.77625 | -1.82174 | 7063 ft | 284 kts | 253° |
| 2026-04-30 18:39 | 53.77210 | -1.85419 | 7204 ft | 282 kts | 252° |
| 2026-04-30 18:40 | 53.76782 | -1.88652 | 7213 ft | 282 kts | 253° |
| 2026-04-30 18:40 | 53.76375 | -1.91889 | 7212 ft | 282 kts | 253° |
| 2026-04-30 18:40 | 53.75991 | -1.95137 | 7212 ft | 282 kts | 254° |
| 2026-04-30 18:40 | 53.75627 | -1.98397 | 7212 ft | 282 kts | 255° |
| 2026-04-30 18:41 | 53.75277 | -2.01661 | 7211 ft | 283 kts | 255° |
| 2026-04-30 18:41 | 53.74909 | -2.04922 | 7212 ft | 281 kts | 249° |
| 2026-04-30 18:41 | 53.74115 | -2.07859 | 7213 ft | 272 kts | 230° |
| 2026-04-30 18:41 | 53.72838 | -2.10141 | 7205 ft | 265 kts | 212° |
| 2026-04-30 18:42 | 53.71265 | -2.11581 | 7204 ft | 260 kts | 196° |
| 2026-04-30 18:42 | 53.67744 | -2.13085 | 7203 ft | 261 kts | 191° |
| 2026-04-30 18:42 | 53.65957 | -2.13819 | 7202 ft | 260 kts | 191° |
| 2026-04-30 18:45 | 53.46877 | -2.21652 | 12739 ft | 318 kts | 191° |
| 2026-04-30 18:45 | 53.44720 | -2.22540 | 13475 ft | 320 kts | 191° |
| 2026-04-30 18:45 | 53.42545 | -2.23432 | 14172 ft | 323 kts | 191° |
| 2026-04-30 18:46 | 53.40353 | -2.24331 | 14802 ft | 326 kts | 191° |
| 2026-04-30 18:46 | 53.38135 | -2.25238 | 15415 ft | 329 kts | 191° |
| 2026-04-30 18:46 | 53.35871 | -2.25834 | 16022 ft | 330 kts | 180° |
| 2026-04-30 18:46 | 53.33582 | -2.25610 | 16616 ft | 331 kts | 169° |
| 2026-04-30 18:47 | 53.31298 | -2.24925 | 17209 ft | 335 kts | 169° |
| 2026-04-30 18:47 | 53.28997 | -2.24237 | 17804 ft | 338 kts | 169° |
| 2026-04-30 18:47 | 53.26671 | -2.23544 | 18395 ft | 341 kts | 169° |
| 2026-04-30 18:47 | 53.24322 | -2.22848 | 18920 ft | 344 kts | 169° |
| 2026-04-30 18:48 | 53.21953 | -2.22150 | 19464 ft | 346 kts | 169° |
| 2026-04-30 18:48 | 53.19577 | -2.21450 | 20020 ft | 348 kts | 169° |
| 2026-04-30 18:48 | 53.17184 | -2.20743 | 20578 ft | 350 kts | 169° |
| 2026-04-30 18:48 | 53.14774 | -2.20126 | 21129 ft | 352 kts | 174° |
| 2026-04-30 18:49 | 53.12316 | -2.20199 | 21658 ft | 356 kts | 184° |
| 2026-04-30 18:49 | 53.09849 | -2.20601 | 22220 ft | 357 kts | 183° |
| 2026-04-30 18:49 | 53.07367 | -2.20993 | 22782 ft | 359 kts | 183° |
| 2026-04-30 18:49 | 53.04872 | -2.21378 | 23326 ft | 361 kts | 183° |
| 2026-04-30 18:50 | 53.02365 | -2.21762 | 23835 ft | 363 kts | 183° |
| 2026-04-30 18:50 | 52.99845 | -2.22152 | 24260 ft | 365 kts | 183° |
| 2026-04-30 18:50 | 52.97304 | -2.22550 | 24675 ft | 367 kts | 183° |
| 2026-04-30 18:50 | 52.94749 | -2.22951 | 25068 ft | 370 kts | 183° |
| 2026-04-30 18:51 | 52.92179 | -2.23352 | 25460 ft | 372 kts | 183° |
| 2026-04-30 18:51 | 52.89594 | -2.23649 | 25840 ft | 373 kts | 178° |
| 2026-04-30 18:51 | 52.87014 | -2.23210 | 26208 ft | 374 kts | 167° |
| 2026-04-30 18:51 | 52.84530 | -2.21908 | 26573 ft | 376 kts | 156° |
| 2026-04-30 18:52 | 52.82243 | -2.19790 | 26937 ft | 379 kts | 146° |
| 2026-04-30 18:52 | 52.80080 | -2.17257 | 27288 ft | 382 kts | 146° |
| 2026-04-30 18:52 | 52.77907 | -2.14726 | 27634 ft | 384 kts | 146° |
| 2026-04-30 18:52 | 52.75712 | -2.12182 | 27987 ft | 386 kts | 146° |
| 2026-04-30 18:53 | 52.73509 | -2.09637 | 28333 ft | 388 kts | 146° |
| 2026-04-30 18:53 | 52.71287 | -2.07077 | 28639 ft | 391 kts | 146° |
| 2026-04-30 18:53 | 52.69049 | -2.04504 | 28953 ft | 393 kts | 146° |
| 2026-04-30 18:53 | 52.66799 | -2.01916 | 29271 ft | 395 kts | 146° |
| 2026-04-30 18:54 | 52.64538 | -1.99317 | 29558 ft | 398 kts | 146° |
| 2026-04-30 18:54 | 52.62267 | -1.96710 | 29863 ft | 400 kts | 146° |
| 2026-04-30 18:54 | 52.59976 | -1.94084 | 30163 ft | 402 kts | 146° |
| 2026-04-30 18:54 | 52.57682 | -1.91452 | 30427 ft | 403 kts | 146° |
| 2026-04-30 18:55 | 52.55374 | -1.88806 | 30678 ft | 405 kts | 146° |
| 2026-04-30 18:55 | 52.50729 | -1.83491 | 31172 ft | 409 kts | 147° |
| 2026-04-30 18:55 | 52.48388 | -1.80820 | 31386 ft | 411 kts | 146° |
| 2026-04-30 18:56 | 52.43671 | -1.75453 | 31804 ft | 414 kts | 147° |
| 2026-04-30 18:56 | 52.41296 | -1.72759 | 32012 ft | 416 kts | 147° |
| 2026-04-30 18:56 | 52.38913 | -1.70059 | 32214 ft | 417 kts | 147° |
| 2026-04-30 18:57 | 52.33877 | -1.65447 | 32790 ft | 414 kts | 160° |
| 2026-04-30 18:57 | 52.31137 | -1.63979 | 33068 ft | 414 kts | 162° |
| 2026-04-30 18:57 | 52.28392 | -1.62554 | 33385 ft | 414 kts | 162° |
| 2026-04-30 18:58 | 52.22977 | -1.59747 | 33777 ft | 395 kts | 162° |
| 2026-04-30 18:58 | 52.20403 | -1.58409 | 33926 ft | 386 kts | 162° |
| 2026-04-30 18:58 | 52.17823 | -1.57068 | 34056 ft | 391 kts | 162° |
| 2026-04-30 18:59 | 52.12618 | -1.54364 | 34240 ft | 401 kts | 162° |
| 2026-04-30 19:00 | 52.04476 | -1.50154 | 34224 ft | 413 kts | 162° |
| 2026-04-30 19:00 | 52.01698 | -1.48701 | 34185 ft | 414 kts | 162° |
| 2026-04-30 19:01 | 51.90772 | -1.43053 | 34192 ft | 412 kts | 162° |
| 2026-04-30 19:02 | 51.82566 | -1.38854 | 34192 ft | 412 kts | 162° |
| 2026-04-30 19:03 | 51.71570 | -1.33268 | 34190 ft | 414 kts | 162° |
| 2026-04-30 19:04 | 51.60594 | -1.27688 | 34164 ft | 414 kts | 162° |
| 2026-04-30 19:05 | 51.50531 | -1.22604 | 34165 ft | 415 kts | 162° |
| 2026-04-30 19:06 | 51.39976 | -1.15176 | 34165 ft | 415 kts | 155° |
| 2026-04-30 19:06 | 51.32114 | -1.09391 | 34167 ft | 415 kts | 155° |
| 2026-04-30 19:07 | 51.24213 | -1.03603 | 34165 ft | 417 kts | 155° |
| 2026-04-30 19:08 | 51.13654 | -0.95928 | 34164 ft | 417 kts | 155° |
| 2026-04-30 19:09 | 51.05787 | -0.90214 | 34176 ft | 415 kts | 155° |
| 2026-04-30 19:09 | 51.00497 | -0.86383 | 34189 ft | 416 kts | 155° |
| 2026-04-30 19:10 | 50.95261 | -0.82636 | 34647 ft | 416 kts | 156° |
| 2026-04-30 19:10 | 50.89988 | -0.78882 | 35076 ft | 416 kts | 156° |
| 2026-04-30 19:11 | 50.87346 | -0.76998 | 35283 ft | 416 kts | 155° |
| 2026-04-30 19:11 | 50.82327 | -0.72423 | 35627 ft | 418 kts | 147° |
| 2026-04-30 19:11 | 50.79888 | -0.69923 | 35808 ft | 418 kts | 147° |
| 2026-04-30 19:12 | 50.77440 | -0.67425 | 35982 ft | 418 kts | 147° |
| 2026-04-30 19:12 | 50.74996 | -0.64939 | 36125 ft | 418 kts | 147° |
| 2026-04-30 19:12 | 50.72564 | -0.62470 | 36164 ft | 413 kts | 148° |
| 2026-04-30 19:13 | 50.62929 | -0.52740 | 36153 ft | 410 kts | 147° |
| 2026-04-30 19:14 | 50.58157 | -0.47925 | 36144 ft | 410 kts | 147° |
| 2026-04-30 19:14 | 50.53344 | -0.43086 | 36158 ft | 411 kts | 148° |
| 2026-04-30 19:15 | 50.48527 | -0.38253 | 36148 ft | 411 kts | 148° |
| 2026-04-30 19:15 | 50.41301 | -0.31017 | 36164 ft | 410 kts | 148° |
| 2026-04-30 19:16 | 50.38926 | -0.28644 | 36119 ft | 398 kts | 147° |
| 2026-04-30 19:16 | 50.36641 | -0.26363 | 36142 ft | 381 kts | 148° |
| 2026-04-30 19:17 | 50.29938 | -0.19699 | 36154 ft | 389 kts | 148° |
| 2026-04-30 19:17 | 50.25299 | -0.15098 | 36145 ft | 401 kts | 148° |
| 2026-04-30 19:17 | 50.22928 | -0.12756 | 36146 ft | 406 kts | 148° |
| 2026-04-30 19:18 | 50.15687 | -0.05602 | 36146 ft | 413 kts | 148° |
| 2026-04-30 19:19 | 50.10774 | -0.00927 | 36126 ft | 414 kts | 154° |
| 2026-04-30 19:19 | 50.02530 | 0.02936 | 36134 ft | 413 kts | 165° |
| 2026-04-30 19:20 | 49.96963 | 0.05138 | 36135 ft | 413 kts | 165° |
| 2026-04-30 19:21 | 49.88598 | 0.08437 | 36130 ft | 414 kts | 165° |
| 2026-04-30 19:22 | 49.77414 | 0.12802 | 36131 ft | 415 kts | 165° |
| 2026-04-30 19:23 | 49.60615 | 0.19421 | 36124 ft | 416 kts | 165° |
| 2026-04-30 19:24 | 49.52214 | 0.22826 | 36134 ft | 416 kts | 165° |
| 2026-04-30 19:25 | 49.38153 | 0.28443 | 36120 ft | 419 kts | 165° |
| 2026-04-30 19:26 | 49.26866 | 0.32981 | 36130 ft | 420 kts | 164° |
| 2026-04-30 19:27 | 49.18418 | 0.36604 | 36123 ft | 421 kts | 164° |
| 2026-04-30 19:28 | 49.09951 | 0.40173 | 36131 ft | 421 kts | 164° |
| 2026-04-30 19:29 | 48.98649 | 0.44904 | 36128 ft | 421 kts | 164° |
| 2026-04-30 19:30 | 48.87342 | 0.49599 | 36126 ft | 421 kts | 164° |
| 2026-04-30 19:31 | 48.76027 | 0.54253 | 36133 ft | 421 kts | 165° |
| 2026-04-30 19:31 | 48.67553 | 0.57552 | 36129 ft | 421 kts | 165° |
| 2026-04-30 19:32 | 48.61873 | 0.59760 | 36126 ft | 421 kts | 165° |
| 2026-04-30 19:32 | 48.56191 | 0.61968 | 36126 ft | 422 kts | 165° |
| 2026-04-30 19:33 | 48.50507 | 0.64188 | 36126 ft | 422 kts | 165° |
| 2026-04-30 19:33 | 48.44835 | 0.66494 | 36124 ft | 422 kts | 164° |
| 2026-04-30 19:34 | 48.39161 | 0.68835 | 36127 ft | 423 kts | 164° |
| 2026-04-30 19:35 | 48.30635 | 0.72284 | 36132 ft | 423 kts | 164° |
| 2026-04-30 19:35 | 48.24948 | 0.74579 | 36131 ft | 423 kts | 164° |
| 2026-04-30 19:36 | 48.19251 | 0.76846 | 36133 ft | 424 kts | 165° |
| 2026-04-30 19:36 | 48.10695 | 0.80193 | 36127 ft | 424 kts | 165° |
| 2026-04-30 19:37 | 48.04990 | 0.82424 | 36124 ft | 424 kts | 165° |
| 2026-04-30 19:37 | 47.99287 | 0.84659 | 36129 ft | 424 kts | 165° |
| 2026-04-30 19:38 | 47.93583 | 0.86883 | 36132 ft | 424 kts | 165° |
| 2026-04-30 19:38 | 47.87874 | 0.89097 | 36137 ft | 424 kts | 165° |
| 2026-04-30 19:39 | 47.82206 | 0.91290 | 36137 ft | 424 kts | 165° |
| 2026-04-30 19:39 | 47.76506 | 0.93498 | 36148 ft | 423 kts | 165° |
| 2026-04-30 19:40 | 47.70766 | 0.95724 | 36136 ft | 423 kts | 165° |
| 2026-04-30 19:40 | 47.65104 | 0.97916 | 36149 ft | 423 kts | 165° |
| 2026-04-30 19:41 | 47.59407 | 1.00111 | 36153 ft | 423 kts | 165° |
| 2026-04-30 19:41 | 47.53717 | 1.02303 | 36155 ft | 423 kts | 165° |
| 2026-04-30 19:42 | 47.48020 | 1.04487 | 36147 ft | 423 kts | 165° |
| 2026-04-30 19:42 | 47.42271 | 1.06296 | 36137 ft | 423 kts | 175° |
| 2026-04-30 19:43 | 47.36377 | 1.06279 | 36154 ft | 424 kts | 180° |
| 2026-04-30 19:44 | 47.27520 | 1.06080 | 36147 ft | 424 kts | 180° |
| 2026-04-30 19:44 | 47.21620 | 1.05942 | 36156 ft | 424 kts | 180° |
| 2026-04-30 19:45 | 47.15720 | 1.05802 | 36164 ft | 424 kts | 180° |
| 2026-04-30 19:45 | 47.09820 | 1.05668 | 36162 ft | 424 kts | 180° |
| 2026-04-30 19:46 | 47.03922 | 1.05529 | 36164 ft | 424 kts | 180° |
| 2026-04-30 19:46 | 46.98021 | 1.05357 | 36163 ft | 424 kts | 180° |
| 2026-04-30 19:47 | 46.92127 | 1.05083 | 36163 ft | 424 kts | 181° |
| 2026-04-30 19:47 | 46.86230 | 1.04792 | 36160 ft | 424 kts | 181° |
| 2026-04-30 19:48 | 46.80335 | 1.04533 | 36159 ft | 424 kts | 181° |
| 2026-04-30 19:48 | 46.74435 | 1.04290 | 36157 ft | 424 kts | 180° |
| 2026-04-30 19:49 | 46.68537 | 1.04054 | 36158 ft | 424 kts | 181° |
| 2026-04-30 19:49 | 46.60689 | 1.03715 | 36157 ft | 424 kts | 181° |
| 2026-04-30 19:50 | 46.54794 | 1.03468 | 36158 ft | 424 kts | 181° |
| 2026-04-30 19:50 | 46.48937 | 1.04210 | 36144 ft | 424 kts | 166° |
| 2026-04-30 19:51 | 46.43184 | 1.06148 | 36144 ft | 425 kts | 166° |
| 2026-04-30 19:51 | 46.37412 | 1.08081 | 36150 ft | 426 kts | 166° |
| 2026-04-30 19:52 | 46.31629 | 1.10012 | 36151 ft | 427 kts | 167° |
| 2026-04-30 19:52 | 46.25831 | 1.11941 | 36155 ft | 428 kts | 167° |
| 2026-04-30 19:53 | 46.20020 | 1.13865 | 36161 ft | 428 kts | 167° |
| 2026-04-30 19:53 | 46.14215 | 1.15791 | 36174 ft | 429 kts | 167° |
| 2026-04-30 19:54 | 46.08399 | 1.17715 | 36177 ft | 429 kts | 167° |
| 2026-04-30 19:54 | 46.02588 | 1.19630 | 36182 ft | 428 kts | 167° |
| 2026-04-30 19:55 | 45.96780 | 1.21534 | 36192 ft | 428 kts | 167° |
| 2026-04-30 19:55 | 45.90981 | 1.23439 | 36188 ft | 427 kts | 168° |
| 2026-04-30 19:56 | 45.85189 | 1.25336 | 36190 ft | 427 kts | 168° |
| 2026-04-30 19:56 | 45.79393 | 1.27227 | 36187 ft | 427 kts | 168° |
| 2026-04-30 19:57 | 45.73594 | 1.29110 | 36189 ft | 428 kts | 168° |
| 2026-04-30 19:57 | 45.67791 | 1.31014 | 36188 ft | 428 kts | 168° |
| 2026-04-30 19:58 | 45.61986 | 1.32919 | 36185 ft | 428 kts | 168° |
| 2026-04-30 19:58 | 45.56175 | 1.34793 | 36183 ft | 429 kts | 169° |
| 2026-04-30 19:59 | 45.50352 | 1.36657 | 36176 ft | 429 kts | 169° |
| 2026-04-30 20:00 | 45.41614 | 1.39477 | 36170 ft | 429 kts | 169° |
| 2026-04-30 20:00 | 45.35785 | 1.41355 | 36177 ft | 430 kts | 169° |
| 2026-04-30 20:01 | 45.27033 | 1.44173 | 36187 ft | 430 kts | 169° |
| 2026-04-30 20:01 | 45.21188 | 1.46049 | 36183 ft | 431 kts | 169° |
| 2026-04-30 20:02 | 45.12458 | 1.48844 | 36180 ft | 431 kts | 170° |
| 2026-04-30 20:03 | 45.03677 | 1.51643 | 36186 ft | 431 kts | 170° |
| 2026-04-30 20:03 | 44.97823 | 1.53492 | 36173 ft | 431 kts | 170° |
| 2026-04-30 20:04 | 44.91960 | 1.55342 | 36176 ft | 432 kts | 171° |
| 2026-04-30 20:05 | 44.83153 | 1.58124 | 36183 ft | 433 kts | 171° |
| 2026-04-30 20:05 | 44.74332 | 1.60914 | 36172 ft | 433 kts | 171° |
| 2026-04-30 20:06 | 44.68459 | 1.62761 | 36094 ft | 432 kts | 171° |
| 2026-04-30 20:06 | 44.65529 | 1.63680 | 35498 ft | 432 kts | 171° |
| 2026-04-30 20:06 | 44.62596 | 1.64593 | 34851 ft | 432 kts | 171° |
| 2026-04-30 20:07 | 44.59651 | 1.65508 | 34374 ft | 435 kts | 171° |
| 2026-04-30 20:07 | 44.56694 | 1.66426 | 34581 ft | 436 kts | 172° |
| 2026-04-30 20:07 | 44.50767 | 1.68279 | 35115 ft | 436 kts | 171° |
| 2026-04-30 20:08 | 44.47806 | 1.69206 | 35371 ft | 436 kts | 171° |
| 2026-04-30 20:08 | 44.44839 | 1.70133 | 35623 ft | 436 kts | 171° |
| 2026-04-30 20:08 | 44.41877 | 1.71054 | 35870 ft | 436 kts | 171° |
| 2026-04-30 20:08 | 44.38916 | 1.71973 | 36077 ft | 437 kts | 172° |
| 2026-04-30 20:09 | 44.35940 | 1.72896 | 36178 ft | 438 kts | 172° |
| 2026-04-30 20:09 | 44.26995 | 1.75581 | 36193 ft | 438 kts | 174° |
| 2026-04-30 20:10 | 44.17991 | 1.77529 | 36191 ft | 436 kts | 176° |
| 2026-04-30 20:11 | 44.08976 | 1.79399 | 36190 ft | 437 kts | 176° |
| 2026-04-30 20:11 | 44.02971 | 1.80732 | 36190 ft | 437 kts | 175° |
| 2026-04-30 20:12 | 43.93940 | 1.82669 | 36187 ft | 437 kts | 178° |
| 2026-04-30 20:13 | 43.87903 | 1.83383 | 36187 ft | 434 kts | 182° |
| 2026-04-30 20:13 | 43.81874 | 1.83804 | 36188 ft | 434 kts | 182° |
| 2026-04-30 20:14 | 43.75838 | 1.84285 | 36186 ft | 435 kts | 182° |
| 2026-04-30 20:14 | 43.69800 | 1.84866 | 36184 ft | 435 kts | 181° |
| 2026-04-30 20:15 | 43.63761 | 1.85472 | 36183 ft | 435 kts | 181° |
| 2026-04-30 20:15 | 43.57720 | 1.86063 | 36185 ft | 435 kts | 181° |
| 2026-04-30 20:16 | 43.51675 | 1.86643 | 36184 ft | 436 kts | 181° |
| 2026-04-30 20:16 | 43.45628 | 1.87222 | 36183 ft | 436 kts | 181° |
| 2026-04-30 20:17 | 43.39579 | 1.87803 | 36172 ft | 435 kts | 181° |
| 2026-04-30 20:17 | 43.33530 | 1.88385 | 36178 ft | 436 kts | 181° |
| 2026-04-30 20:18 | 43.27518 | 1.88965 | 36176 ft | 436 kts | 181° |
| 2026-04-30 20:18 | 43.21469 | 1.89540 | 36176 ft | 436 kts | 181° |
| 2026-04-30 20:19 | 43.15422 | 1.90114 | 36177 ft | 435 kts | 181° |
| 2026-04-30 20:19 | 43.09375 | 1.90695 | 36179 ft | 436 kts | 181° |
| 2026-04-30 20:20 | 43.03330 | 1.91277 | 36181 ft | 436 kts | 181° |
| 2026-04-30 20:20 | 42.97277 | 1.91849 | 36183 ft | 435 kts | 181° |
| 2026-04-30 20:21 | 42.91248 | 1.92415 | 36183 ft | 434 kts | 181° |
| 2026-04-30 20:21 | 42.85214 | 1.92979 | 36182 ft | 434 kts | 181° |
| 2026-04-30 20:22 | 42.79189 | 1.93545 | 36189 ft | 434 kts | 181° |
| 2026-04-30 20:22 | 42.73163 | 1.94112 | 36188 ft | 434 kts | 181° |
| 2026-04-30 20:23 | 42.67133 | 1.94816 | 36190 ft | 438 kts | 174° |
| 2026-04-30 20:23 | 42.61196 | 1.96861 | 36189 ft | 441 kts | 170° |
| 2026-04-30 20:24 | 42.55264 | 1.99011 | 36198 ft | 441 kts | 170° |
| 2026-04-30 20:24 | 42.49330 | 2.01144 | 36198 ft | 441 kts | 170° |
| 2026-04-30 20:25 | 42.40423 | 2.04333 | 36191 ft | 441 kts | 170° |
| 2026-04-30 20:26 | 42.31518 | 2.07523 | 36192 ft | 441 kts | 170° |
| 2026-04-30 20:26 | 42.22608 | 2.10675 | 36190 ft | 441 kts | 170° |
| 2026-04-30 20:27 | 42.10744 | 2.14861 | 36185 ft | 440 kts | 170° |
| 2026-04-30 20:28 | 41.98926 | 2.19039 | 36173 ft | 439 kts | 170° |
| 2026-04-30 20:30 | 41.84212 | 2.24196 | 36165 ft | 436 kts | 170° |
| 2026-04-30 20:31 | 41.66627 | 2.30344 | 36144 ft | 436 kts | 170° |
| 2026-04-30 20:32 | 41.52920 | 2.35110 | 36129 ft | 436 kts | 169° |
| 2026-04-30 20:33 | 41.44126 | 2.38160 | 36144 ft | 435 kts | 169° |
| 2026-04-30 20:34 | 41.35347 | 2.41191 | 36143 ft | 435 kts | 169° |
| 2026-04-30 20:35 | 41.26581 | 2.44202 | 36138 ft | 432 kts | 169° |
| 2026-04-30 20:35 | 41.17856 | 2.47200 | 36140 ft | 431 kts | 169° |
| 2026-04-30 20:36 | 41.12046 | 2.49197 | 36141 ft | 431 kts | 169° |
| 2026-04-30 20:36 | 41.06242 | 2.51192 | 35949 ft | 430 kts | 170° |
| 2026-04-30 20:37 | 41.03347 | 2.52184 | 35296 ft | 430 kts | 170° |
| 2026-04-30 20:37 | 41.00486 | 2.53162 | 34621 ft | 431 kts | 170° |
| 2026-04-30 20:37 | 40.97541 | 2.54164 | 33895 ft | 432 kts | 170° |
| 2026-04-30 20:37 | 40.94662 | 2.55140 | 33106 ft | 434 kts | 170° |
| 2026-04-30 20:38 | 40.91743 | 2.56132 | 32497 ft | 431 kts | 170° |
| 2026-04-30 20:38 | 40.88852 | 2.57116 | 31952 ft | 428 kts | 170° |
| 2026-04-30 20:38 | 40.85979 | 2.58096 | 31415 ft | 424 kts | 170° |
| 2026-04-30 20:39 | 40.80318 | 2.60029 | 30410 ft | 417 kts | 170° |
| 2026-04-30 20:39 | 40.77517 | 2.60983 | 29863 ft | 414 kts | 170° |
| 2026-04-30 20:39 | 40.74739 | 2.61924 | 29293 ft | 411 kts | 170° |
| 2026-04-30 20:40 | 40.69243 | 2.63784 | 28194 ft | 405 kts | 170° |
| 2026-04-30 20:40 | 40.66524 | 2.64702 | 27668 ft | 402 kts | 170° |
| 2026-04-30 20:40 | 40.63827 | 2.65612 | 27158 ft | 399 kts | 169° |
| 2026-04-30 20:41 | 40.58476 | 2.67415 | 26163 ft | 394 kts | 169° |
| 2026-04-30 20:41 | 40.55825 | 2.68302 | 25672 ft | 393 kts | 169° |
| 2026-04-30 20:41 | 40.53184 | 2.69187 | 25188 ft | 391 kts | 169° |
| 2026-04-30 20:41 | 40.50569 | 2.70166 | 24720 ft | 391 kts | 163° |
| 2026-04-30 20:42 | 40.48089 | 2.71641 | 24267 ft | 393 kts | 154° |
| 2026-04-30 20:42 | 40.45707 | 2.73386 | 23806 ft | 391 kts | 154° |
| 2026-04-30 20:42 | 40.40980 | 2.76827 | 22815 ft | 385 kts | 154° |
| 2026-04-30 20:43 | 40.38645 | 2.78522 | 22357 ft | 382 kts | 154° |
| 2026-04-30 20:43 | 40.36328 | 2.80197 | 21902 ft | 379 kts | 154° |
| 2026-04-30 20:43 | 40.34024 | 2.81858 | 21448 ft | 376 kts | 154° |
| 2026-04-30 20:44 | 40.29467 | 2.85125 | 20565 ft | 370 kts | 156° |
| 2026-04-30 20:44 | 40.27065 | 2.86183 | 20147 ft | 360 kts | 174° |
| 2026-04-30 20:44 | 40.22227 | 2.85615 | 19290 ft | 348 kts | 195° |
| 2026-04-30 20:45 | 40.17537 | 2.84248 | 18484 ft | 343 kts | 196° |
| 2026-04-30 20:45 | 40.15215 | 2.83571 | 18049 ft | 341 kts | 196° |
| 2026-04-30 20:45 | 40.12908 | 2.82900 | 17615 ft | 338 kts | 196° |
| 2026-04-30 20:46 | 40.06087 | 2.80908 | 16382 ft | 332 kts | 196° |
| 2026-04-30 20:46 | 40.03841 | 2.80251 | 15983 ft | 329 kts | 195° |
| 2026-04-30 20:47 | 39.99575 | 2.78492 | 15210 ft | 319 kts | 214° |
| 2026-04-30 20:47 | 39.97702 | 2.76881 | 14807 ft | 318 kts | 216° |
| 2026-04-30 20:48 | 39.94060 | 2.73678 | 14053 ft | 314 kts | 216° |
| 2026-04-30 20:48 | 39.92254 | 2.72087 | 13656 ft | 312 kts | 216° |
| 2026-04-30 20:48 | 39.90460 | 2.70509 | 13231 ft | 311 kts | 216° |
| 2026-04-30 20:48 | 39.88672 | 2.68940 | 12805 ft | 309 kts | 216° |
| 2026-04-30 20:49 | 39.86890 | 2.67381 | 12380 ft | 308 kts | 216° |
| 2026-04-30 20:49 | 39.85136 | 2.65845 | 11963 ft | 307 kts | 216° |
| 2026-04-30 20:49 | 39.83365 | 2.64293 | 11545 ft | 306 kts | 216° |
| 2026-04-30 20:50 | 39.79840 | 2.61212 | 10707 ft | 304 kts | 216° |
| 2026-04-30 20:50 | 39.78087 | 2.59685 | 10313 ft | 303 kts | 216° |
| 2026-04-30 20:50 | 39.76343 | 2.58168 | 10097 ft | 298 kts | 215° |
| 2026-04-30 20:50 | 39.74657 | 2.56703 | 10100 ft | 288 kts | 216° |
| 2026-04-30 20:51 | 39.72997 | 2.55262 | 10104 ft | 286 kts | 216° |
| 2026-04-30 20:51 | 39.69689 | 2.52386 | 10099 ft | 286 kts | 216° |
| 2026-04-30 20:51 | 39.68048 | 2.50953 | 9779 ft | 283 kts | 216° |
| 2026-04-30 20:52 | 39.66412 | 2.49529 | 9366 ft | 283 kts | 216° |
| 2026-04-30 20:52 | 39.64783 | 2.48112 | 9049 ft | 279 kts | 215° |
| 2026-04-30 20:52 | 39.61732 | 2.45476 | 8755 ft | 245 kts | 216° |
| 2026-04-30 20:53 | 39.60345 | 2.44278 | 8359 ft | 236 kts | 216° |
| 2026-04-30 20:53 | 39.58988 | 2.43100 | 7875 ft | 234 kts | 216° |
| 2026-04-30 20:53 | 39.57625 | 2.41921 | 7516 ft | 235 kts | 216° |
| 2026-04-30 20:54 | 39.54914 | 2.39545 | 6830 ft | 235 kts | 216° |
| 2026-04-30 20:54 | 39.53571 | 2.38341 | 6520 ft | 235 kts | 216° |
| 2026-04-30 20:54 | 39.52230 | 2.37136 | 6162 ft | 235 kts | 216° |
| 2026-04-30 20:55 | 39.49386 | 2.35197 | 5529 ft | 231 kts | 182° |
| 2026-04-30 20:55 | 39.47834 | 2.35644 | 5494 ft | 233 kts | 148° |
| 2026-04-30 20:55 | 39.46703 | 2.37083 | 5318 ft | 228 kts | 115° |
| 2026-04-30 20:56 | 39.46112 | 2.41011 | 4600 ft | 224 kts | 92° |
| 2026-04-30 20:56 | 39.45986 | 2.43021 | 4239 ft | 223 kts | 92° |
| 2026-04-30 20:56 | 39.45778 | 2.46981 | 3568 ft | 217 kts | 86° |
| 2026-04-30 20:57 | 39.45881 | 2.48921 | 3236 ft | 215 kts | 83° |
| 2026-04-30 20:57 | 39.46031 | 2.50829 | 3016 ft | 212 kts | 82° |
| 2026-04-30 20:57 | 39.46187 | 2.52730 | 3003 ft | 213 kts | 82° |
| 2026-04-30 20:58 | 39.47234 | 2.55956 | 3001 ft | 189 kts | 37° |
| 2026-04-30 20:58 | 39.48142 | 2.57132 | 3008 ft | 183 kts | 59° |
| 2026-04-30 20:58 | 39.48775 | 2.58549 | 3006 ft | 181 kts | 58° |
| 2026-04-30 20:58 | 39.49432 | 2.59936 | 3007 ft | 181 kts | 58° |
| 2026-04-30 20:59 | 39.50746 | 2.62703 | 3025 ft | 179 kts | 58° |
| 2026-04-30 20:59 | 39.51397 | 2.64073 | 3014 ft | 179 kts | 58° |
| 2026-04-30 21:00 | 39.52654 | 2.66724 | 2154 ft | 170 kts | 58° |
| 2026-04-30 21:00 | 39.53883 | 2.69316 | 2008 ft | 170 kts | 59° |
| 2026-04-30 21:01 | 39.55136 | 2.71965 | 2224 ft | 175 kts | 59° |
| 2026-04-30 21:01 | 39.55782 | 2.73346 | 2633 ft | 181 kts | 59° |
| 2026-04-30 21:01 | 39.57136 | 2.76145 | 3611 ft | 195 kts | 55° |
| 2026-04-30 21:02 | 39.57945 | 2.77665 | 3892 ft | 212 kts | 54° |
| 2026-04-30 21:02 | 39.58801 | 2.79274 | 3997 ft | 218 kts | 55° |
| 2026-04-30 21:02 | 39.59654 | 2.80897 | 4009 ft | 218 kts | 55° |
| 2026-04-30 21:02 | 39.60481 | 2.82536 | 4006 ft | 217 kts | 58° |
| 2026-04-30 21:03 | 39.61106 | 2.84313 | 4000 ft | 219 kts | 80° |
| 2026-04-30 21:03 | 39.60957 | 2.86266 | 4007 ft | 221 kts | 107° |
| 2026-04-30 21:03 | 39.60392 | 2.88132 | 4006 ft | 223 kts | 111° |
| 2026-04-30 21:03 | 39.59765 | 2.89972 | 4005 ft | 223 kts | 112° |
| 2026-04-30 21:04 | 39.59131 | 2.91811 | 4013 ft | 223 kts | 112° |
| 2026-04-30 21:04 | 39.58496 | 2.93648 | 4013 ft | 223 kts | 112° |
| 2026-04-30 21:04 | 39.56887 | 2.97040 | 4009 ft | 226 kts | 146° |
| 2026-04-30 21:05 | 39.55441 | 2.97644 | 4008 ft | 213 kts | 181° |
| 2026-04-30 21:05 | 39.54067 | 2.97077 | 3997 ft | 209 kts | 219° |
| 2026-04-30 21:05 | 39.53218 | 2.95593 | 3850 ft | 206 kts | 247° |
| 2026-04-30 21:05 | 39.52706 | 2.93879 | 4050 ft | 202 kts | 253° |
| 2026-04-30 21:06 | 39.52328 | 2.92124 | 4240 ft | 201 kts | 257° |
| 2026-04-30 21:06 | 39.51802 | 2.90442 | 4273 ft | 205 kts | 241° |
| 2026-04-30 21:06 | 39.51035 | 2.88807 | 3598 ft | 217 kts | 240° |
| 2026-04-30 21:06 | 39.50285 | 2.87065 | 2911 ft | 225 kts | 242° |
| 2026-04-30 21:07 | 39.49572 | 2.85332 | 2730 ft | 210 kts | 242° |
| 2026-04-30 21:07 | 39.48888 | 2.83663 | 2933 ft | 211 kts | 242° |
| 2026-04-30 21:07 | 39.48211 | 2.82016 | 3668 ft | 205 kts | 242° |
| 2026-04-30 21:07 | 39.47534 | 2.80381 | 3939 ft | 204 kts | 242° |
| 2026-04-30 21:08 | 39.46861 | 2.78777 | 4005 ft | 202 kts | 242° |
| 2026-04-30 21:08 | 39.46187 | 2.77186 | 4010 ft | 201 kts | 242° |
| 2026-04-30 21:08 | 39.45517 | 2.75599 | 4011 ft | 201 kts | 243° |
| 2026-04-30 21:08 | 39.44857 | 2.74028 | 3953 ft | 201 kts | 242° |
| 2026-04-30 21:09 | 39.44195 | 2.72438 | 3931 ft | 203 kts | 242° |
| 2026-04-30 21:09 | 39.43500 | 2.70807 | 4061 ft | 211 kts | 242° |
| 2026-04-30 21:09 | 39.42780 | 2.69157 | 4206 ft | 210 kts | 241° |
| 2026-04-30 21:09 | 39.42127 | 2.67470 | 4382 ft | 211 kts | 252° |
| 2026-04-30 21:10 | 39.41697 | 2.65683 | 4246 ft | 206 kts | 256° |
| 2026-04-30 21:10 | 39.41319 | 2.63894 | 3747 ft | 207 kts | 257° |
| 2026-04-30 21:10 | 39.40957 | 2.62096 | 3311 ft | 206 kts | 257° |
| 2026-04-30 21:10 | 39.40612 | 2.60351 | 2990 ft | 196 kts | 257° |
| 2026-04-30 21:11 | 39.40279 | 2.58647 | 2552 ft | 194 kts | 257° |
| 2026-04-30 21:11 | 39.39957 | 2.56940 | 2511 ft | 197 kts | 257° |
| 2026-04-30 21:11 | 39.39641 | 2.55214 | 2506 ft | 198 kts | 257° |
| 2026-04-30 21:11 | 39.39312 | 2.53480 | 2503 ft | 199 kts | 255° |
| 2026-04-30 21:12 | 39.38901 | 2.51774 | 2502 ft | 199 kts | 252° |
| 2026-04-30 21:12 | 39.38469 | 2.50071 | 2504 ft | 199 kts | 252° |
| 2026-04-30 21:12 | 39.38035 | 2.48370 | 2504 ft | 199 kts | 252° |
| 2026-04-30 21:12 | 39.37596 | 2.46675 | 2502 ft | 199 kts | 252° |
| 2026-04-30 21:13 | 39.37210 | 2.44963 | 2410 ft | 199 kts | 263° |
| 2026-04-30 21:13 | 39.37316 | 2.43213 | 1922 ft | 195 kts | 290° |
| 2026-04-30 21:13 | 39.38024 | 2.41763 | 1397 ft | 188 kts | 326° |
| 2026-04-30 21:13 | 39.39211 | 2.41292 | 1378 ft | 180 kts | 8° |
| 2026-04-30 21:14 | 39.40303 | 2.41952 | 1383 ft | 175 kts | 49° |
| 2026-04-30 21:14 | 39.40993 | 2.43213 | 1370 ft | 165 kts | 60° |
| 2026-04-30 21:14 | 39.41546 | 2.44466 | 1393 ft | 158 kts | 62° |
| 2026-04-30 21:14 | 39.42076 | 2.45690 | 1382 ft | 154 kts | 62° |
| 2026-04-30 21:15 | 39.42595 | 2.46894 | 1532 ft | 153 kts | 62° |
| 2026-04-30 21:15 | 39.43115 | 2.48096 | 1794 ft | 153 kts | 62° |
| 2026-04-30 21:15 | 39.43638 | 2.49309 | 2049 ft | 155 kts | 62° |
| 2026-04-30 21:15 | 39.44160 | 2.50530 | 2298 ft | 155 kts | 62° |
| 2026-04-30 21:16 | 39.44685 | 2.51767 | 2463 ft | 158 kts | 62° |
| 2026-04-30 21:16 | 39.45207 | 2.53019 | 2504 ft | 158 kts | 62° |
| 2026-04-30 21:16 | 39.45727 | 2.54272 | 2505 ft | 158 kts | 62° |
| 2026-04-30 21:16 | 39.46245 | 2.55524 | 2508 ft | 158 kts | 62° |
| 2026-04-30 21:17 | 39.46768 | 2.56752 | 2530 ft | 157 kts | 58° |
| 2026-04-30 21:17 | 39.47445 | 2.57892 | 2623 ft | 159 kts | 49° |
| 2026-04-30 21:17 | 39.48182 | 2.58898 | 2519 ft | 148 kts | 46° |
| 2026-04-30 21:17 | 39.48872 | 2.59811 | 2348 ft | 135 kts | 55° |
| 2026-04-30 21:18 | 39.49415 | 2.60786 | 2464 ft | 134 kts | 45° |
| 2026-04-30 21:18 | 39.50158 | 2.61578 | 2143 ft | 142 kts | 42° |
| 2026-04-30 21:18 | 39.50877 | 2.62487 | 1718 ft | 142 kts | 50° |
| 2026-04-30 21:18 | 39.51477 | 2.63468 | 1358 ft | 138 kts | 56° |
| 2026-04-30 21:19 | 39.52019 | 2.64543 | 1001 ft | 148 kts | 60° |
| 2026-04-30 21:19 | 39.52361 | 2.65338 | 867 ft | 152 kts | 63° |
| 2026-04-30 21:19 | 39.52852 | 2.66563 | 909 ft | 155 kts | 64° |
| 2026-04-30 21:19 | 39.53364 | 2.67800 | 876 ft | 156 kts | 62° |
| 2026-04-30 21:20 | 39.53861 | 2.69042 | 636 ft | 156 kts | 62° |
| 2026-04-30 21:20 | 39.54377 | 2.70264 | 346 ft | 154 kts | 62° |
| 2026-04-30 21:20 | 39.54911 | 2.71471 | 36 ft | 151 kts | 63° |
| 2026-04-30 21:20 | 39.55395 | 2.72451 | 28 ft | 91 kts | 61° |
| 2026-04-30 21:21 | 39.55482 | 2.72790 | 31 ft | 20 kts | 96° |
| 2026-04-30 21:21 | 39.55500 | 2.73024 | 32 ft | 28 kts | 88° |
| 2026-04-30 21:21 | 39.55534 | 2.73249 | 31 ft | 0 kts | 58° |
| 2026-04-30 21:23 | 39.55540 | 2.73262 | 33 ft | 4 kts | 58° |
| 2026-04-30 21:24 | 39.55553 | 2.73289 | 32 ft | 5 kts | 58° |
| 2026-04-30 21:24 | 39.55596 | 2.73377 | 33 ft | 16 kts | 58° |
| 2026-04-30 21:24 | 39.55606 | 2.73511 | 34 ft | 17 kts | 135° |
| 2026-04-30 21:24 | 39.55500 | 2.73552 | 34 ft | 17 kts | 212° |
| 2026-04-30 21:25 | 39.55380 | 2.73321 | 33 ft | 14 kts | 238° |
| 2026-04-30 21:25 | 39.55330 | 2.73213 | 32 ft | 14 kts | 238° |
| 2026-04-30 21:25 | 39.55289 | 2.73128 | 32 ft | 4 kts | 238° |
| 2026-04-30 21:26 | 39.55285 | 2.73120 | 32 ft | 1 kts | 238° |
| 2026-04-30 21:26 | 39.55258 | 2.73062 | 32 ft | 10 kts | 237° |
| 2026-04-30 21:27 | 39.55151 | 2.73008 | 32 ft | 1 kts | 192° |